createdAt,value
2023-01-26T00:02:14.176Z,93.14
2023-01-26T00:04:42.205Z,93.00
2023-01-26T00:07:10.073Z,93.59
2023-01-26T00:09:37.935Z,93.52
2023-01-26T00:12:06.251Z,93.29
2023-01-26T00:14:50.005Z,93.83
2023-01-26T00:17:25.878Z,93.56
2023-01-26T00:19:57.067Z,93.61
2023-01-26T00:22:27.605Z,93.18
2023-01-26T00:24:55.844Z,92.68
2023-01-26T00:27:23.892Z,92.60
2023-01-26T00:29:51.807Z,93.43
2023-01-26T00:32:19.721Z,93.32
2023-01-26T00:34:49.123Z,92.75
2023-01-26T00:37:17.186Z,92.67
2023-01-26T00:39:45.060Z,93.14
2023-01-26T00:42:15.947Z,93.18
2023-01-26T00:44:44.322Z,93.80
2023-01-26T00:47:14.419Z,94.59
2023-01-26T00:49:42.621Z,94.98
2023-01-26T00:52:12.649Z,94.63
2023-01-26T00:54:40.614Z,93.45
2023-01-26T00:57:08.786Z,94.44
2023-01-26T00:59:36.839Z,95.03
2023-01-26T01:02:04.832Z,95.50
2023-01-26T01:04:32.996Z,95.52
2023-01-26T01:07:01.727Z,94.81
2023-01-26T01:09:29.684Z,94.56
2023-01-26T01:11:57.678Z,94.28
2023-01-26T01:14:25.676Z,93.30
2023-01-26T01:16:53.943Z,93.12
2023-01-26T01:19:21.882Z,93.19
2023-01-26T01:21:49.819Z,93.29
2023-01-26T01:24:17.928Z,92.68
2023-01-26T01:26:45.863Z,92.70
2023-01-26T01:29:14.888Z,93.68
2023-01-26T01:31:43.300Z,93.95
2023-01-26T01:34:11.297Z,94.06
2023-01-26T01:36:39.290Z,94.02
2023-01-26T01:39:07.241Z,94.70
2023-01-26T01:41:35.224Z,93.84
2023-01-26T01:44:16.098Z,92.23
2023-01-26T01:47:09.436Z,93.91
2023-01-26T01:49:51.199Z,95.10
2023-01-26T01:52:29.755Z,94.81
2023-01-26T01:55:10.218Z,93.98
2023-01-26T01:57:55.083Z,93.00
2023-01-26T02:00:24.218Z,93.51
2023-01-26T02:03:21.203Z,93.92
2023-01-26T02:06:08.954Z,93.71
2023-01-26T02:08:47.674Z,93.94
2023-01-26T02:11:44.989Z,94.10
2023-01-26T02:14:15.770Z,94.80
2023-01-26T02:16:43.694Z,93.68
2023-01-26T02:19:37.266Z,93.90
2023-01-26T02:22:20.850Z,94.99
2023-01-26T02:24:50.047Z,94.95
2023-01-26T02:27:17.985Z,94.64
2023-01-26T02:29:45.952Z,94.06
2023-01-26T02:32:13.912Z,94.01
2023-01-26T02:34:41.862Z,94.85
2023-01-26T02:37:15.003Z,94.58
2023-01-26T02:40:02.252Z,94.18
2023-01-26T02:42:39.291Z,93.65
2023-01-26T02:45:11.502Z,93.18
2023-01-26T02:47:40.463Z,92.90
2023-01-26T02:50:12.147Z,92.46
2023-01-26T02:52:40.752Z,92.33
2023-01-26T02:55:28.452Z,92.07
2023-01-26T02:58:04.236Z,92.01
2023-01-26T03:00:37.664Z,92.57
2023-01-26T03:03:45.618Z,93.94
2023-01-26T03:06:15.479Z,93.10
2023-01-26T03:08:43.863Z,93.16
2023-01-26T03:11:11.948Z,92.46
2023-01-26T03:13:40.491Z,92.86
2023-01-26T03:16:11.925Z,92.15
2023-01-26T03:18:59.325Z,92.78
2023-01-26T03:21:49.624Z,93.18
2023-01-26T03:24:38.740Z,94.13
2023-01-26T03:27:28.480Z,95.15
2023-01-26T03:30:04.285Z,94.77
2023-01-26T03:32:32.747Z,93.93
2023-01-26T03:35:00.994Z,93.06
2023-01-26T03:37:36.813Z,93.25
2023-01-26T03:40:30.529Z,93.99
2023-01-26T03:43:17.004Z,93.66
2023-01-26T03:46:03.641Z,93.11
2023-01-26T03:48:50.956Z,93.18
2023-01-26T03:51:37.859Z,92.88
2023-01-26T03:54:24.846Z,92.02
2023-01-26T03:56:53.623Z,93.49
2023-01-26T03:59:37.756Z,94.15
2023-01-26T04:02:31.303Z,93.75
2023-01-26T04:05:18.903Z,94.13
2023-01-26T04:08:09.191Z,93.77
2023-01-26T04:10:37.152Z,92.63
2023-01-26T04:13:25.173Z,93.90
2023-01-26T04:16:17.535Z,92.93
2023-01-26T04:19:04.447Z,92.60
2023-01-26T04:21:34.332Z,93.87
2023-01-26T04:24:09.695Z,94.07
2023-01-26T04:26:37.797Z,93.23
2023-01-26T04:29:12.707Z,93.30
2023-01-26T04:31:42.461Z,93.01
2023-01-26T04:34:14.548Z,91.98
2023-01-26T04:36:43.748Z,92.18
2023-01-26T04:39:11.688Z,93.45
2023-01-26T04:41:43.393Z,93.33
2023-01-26T04:44:14.750Z,93.06
2023-01-26T04:46:42.838Z,92.67
2023-01-26T04:49:13.249Z,91.92
2023-01-26T04:51:41.208Z,92.65
2023-01-26T04:54:09.462Z,92.74
2023-01-26T04:56:40.527Z,92.83
2023-01-26T04:59:10.926Z,93.72
2023-01-26T05:01:41.847Z,93.43
2023-01-26T05:04:12.753Z,93.05
2023-01-26T05:06:44.336Z,92.47
2023-01-26T05:09:12.451Z,91.75
2023-01-26T05:11:42.512Z,92.28
2023-01-26T05:14:36.651Z,92.71
2023-01-26T05:17:20.287Z,93.51
2023-01-26T05:19:55.165Z,93.58
2023-01-26T05:22:56.906Z,92.96
2023-01-26T05:25:33.859Z,92.28
2023-01-26T05:28:05.749Z,93.47
2023-01-26T05:30:33.826Z,92.98
2023-01-26T05:33:05.695Z,92.26
2023-01-26T05:35:36.129Z,93.13
2023-01-26T05:38:06.485Z,92.96
2023-01-26T05:40:35.480Z,92.92
2023-01-26T05:43:03.494Z,92.38
2023-01-26T05:45:59.332Z,92.20
2023-01-26T05:48:27.708Z,92.50
2023-01-26T05:50:57.562Z,92.21
2023-01-26T05:53:26.637Z,92.05
2023-01-26T05:55:55.093Z,91.78
2023-01-26T05:58:25.220Z,91.75
2023-01-26T06:00:54.196Z,91.59
2023-01-26T06:03:25.493Z,91.32
2023-01-26T06:05:55.094Z,92.55
2023-01-26T06:08:32.181Z,92.57
2023-01-26T06:11:26.317Z,91.83
2023-01-26T06:14:17.187Z,91.49
2023-01-26T06:16:45.758Z,91.69
2023-01-26T06:19:13.809Z,91.58
2023-01-26T06:21:42.788Z,92.02
2023-01-26T06:24:11.118Z,92.26
2023-01-26T06:26:39.295Z,93.16
2023-01-26T06:29:07.411Z,93.49
2023-01-26T06:31:37.525Z,92.84
2023-01-26T06:34:11.402Z,92.37
2023-01-26T06:36:42.106Z,92.16
2023-01-26T06:39:16.845Z,92.72
2023-01-26T06:41:44.901Z,93.76
2023-01-26T06:44:13.381Z,94.10
2023-01-26T06:46:41.318Z,94.28
2023-01-26T06:49:09.734Z,93.68
2023-01-26T06:51:54.713Z,92.94
2023-01-26T06:54:27.053Z,92.55
2023-01-26T06:57:30.398Z,91.73
2023-01-26T07:00:08.512Z,93.01
2023-01-26T07:02:56.605Z,92.82
2023-01-26T07:05:24.705Z,91.24
2023-01-26T07:07:52.654Z,91.90
2023-01-26T07:10:20.936Z,92.69
2023-01-26T07:12:49.934Z,92.50
2023-01-26T07:15:18.020Z,91.83
2023-01-26T07:17:45.901Z,91.07
2023-01-26T07:20:14.470Z,90.69
2023-01-26T07:22:42.372Z,91.56
2023-01-26T07:25:10.510Z,91.79
2023-01-26T07:27:38.458Z,91.89
2023-01-26T07:30:07.888Z,91.50
2023-01-26T07:32:35.909Z,91.69
2023-01-26T07:35:04.944Z,92.52
2023-01-26T07:37:33.079Z,92.88
2023-01-26T07:40:01.114Z,93.19
2023-01-26T07:42:31.294Z,93.49
2023-01-26T07:45:11.087Z,93.25
2023-01-26T07:47:39.306Z,93.41
2023-01-26T07:50:09.233Z,93.20
2023-01-26T07:52:38.407Z,92.67
2023-01-26T07:55:06.719Z,92.67
2023-01-26T07:57:34.824Z,92.11
2023-01-26T08:00:04.434Z,92.24
2023-01-26T08:02:39.844Z,92.35
2023-01-26T08:05:08.464Z,91.21
2023-01-26T08:07:36.581Z,91.35
2023-01-26T08:10:05.316Z,91.50
2023-01-26T08:12:38.556Z,91.83
2023-01-26T08:15:11.095Z,90.73
2023-01-26T08:17:39.051Z,90.76
2023-01-26T08:20:08.069Z,90.93
2023-01-26T08:22:36.276Z,91.13
2023-01-26T08:25:04.653Z,90.60
2023-01-26T08:27:34.954Z,89.92
2023-01-26T08:30:02.930Z,89.49
2023-01-26T08:32:31.277Z,89.39
2023-01-26T08:34:59.241Z,89.45
2023-01-26T08:37:27.189Z,88.96
2023-01-26T08:39:55.117Z,89.57
2023-01-26T08:42:23.051Z,89.71
2023-01-26T08:44:52.414Z,89.53
2023-01-26T08:47:20.498Z,89.68
2023-01-26T08:49:48.383Z,89.04
2023-01-26T08:52:16.762Z,88.68
2023-01-26T08:54:44.692Z,89.38
2023-01-26T08:57:12.630Z,91.11
2023-01-26T08:59:40.538Z,91.21
2023-01-26T09:02:10.857Z,90.46
2023-01-26T09:04:38.848Z,90.11
2023-01-26T09:07:06.965Z,90.86
2023-01-26T09:09:35.262Z,91.31
2023-01-26T09:12:04.463Z,91.09
2023-01-26T09:14:32.443Z,90.86
2023-01-26T09:17:00.336Z,90.88
2023-01-26T09:19:30.910Z,90.70
2023-01-26T09:21:59.092Z,90.63
2023-01-26T09:24:27.205Z,90.68
2023-01-26T09:26:55.190Z,91.42
2023-01-26T09:29:23.188Z,90.19
2023-01-26T09:31:51.280Z,90.21
2023-01-26T09:34:19.259Z,89.50
2023-01-26T09:36:47.130Z,90.04
2023-01-26T09:39:15.015Z,89.85
2023-01-26T09:42:20.326Z,89.60
2023-01-26T09:44:54.420Z,89.70
2023-01-26T09:47:35.338Z,88.11
2023-01-26T09:50:34.689Z,88.94
2023-01-26T09:53:14.904Z,88.35
2023-01-26T09:55:46.284Z,89.47
2023-01-26T09:58:42.755Z,90.03
2023-01-26T10:01:35.364Z,88.24
2023-01-26T10:04:32.562Z,88.14
2023-01-26T10:07:04.492Z,89.04
2023-01-26T10:09:53.234Z,88.68
2023-01-26T10:12:38.502Z,86.67
2023-01-26T10:15:34.124Z,85.64
2023-01-26T10:18:07.881Z,87.85
2023-01-26T10:20:45.167Z,88.02
2023-01-26T10:23:23.251Z,89.05
2023-01-26T10:25:54.108Z,88.69
2023-01-26T10:28:34.881Z,89.45
2023-01-26T10:31:12.290Z,88.51
2023-01-26T10:33:48.701Z,88.36
2023-01-26T10:36:16.753Z,87.45
2023-01-26T10:38:46.446Z,87.36
2023-01-26T10:41:14.305Z,87.98
2023-01-26T10:44:04.892Z,87.34
2023-01-26T10:46:39.684Z,88.65
2023-01-26T10:49:14.542Z,88.13
2023-01-26T10:51:46.949Z,86.57
2023-01-26T10:54:20.494Z,85.59
2023-01-26T10:56:55.061Z,85.69
2023-01-26T10:59:38.982Z,85.72
2023-01-26T11:02:30.644Z,85.15
2023-01-26T11:05:15.726Z,85.34
2023-01-26T11:07:47.861Z,85.46
2023-01-26T11:10:25.035Z,86.43
2023-01-26T11:13:14.594Z,87.91
2023-01-26T11:15:47.849Z,87.71
2023-01-26T11:18:53.179Z,88.12
2023-01-26T11:21:49.859Z,86.43
2023-01-26T11:25:02.195Z,86.22
2023-01-26T11:27:51.193Z,86.97
2023-01-26T11:31:13.755Z,87.02
2023-01-26T11:34:10.245Z,87.90
2023-01-26T11:37:24.916Z,87.70
2023-01-26T11:40:17.413Z,87.28
2023-01-26T11:43:24.960Z,87.86
2023-01-26T11:46:45.535Z,87.91
2023-01-26T11:49:56.042Z,87.70
2023-01-26T11:52:39.447Z,88.90
2023-01-26T11:55:36.540Z,87.70
2023-01-26T11:58:32.184Z,86.88
2023-01-26T12:01:06.986Z,86.97
2023-01-26T12:03:51.681Z,86.88
2023-01-26T12:06:43.240Z,87.86
2023-01-26T12:09:47.413Z,88.47
2023-01-26T12:12:34.499Z,87.30
2023-01-26T12:15:24.099Z,86.78
2023-01-26T12:17:58.553Z,86.52
2023-01-26T12:20:47.640Z,86.01
2023-01-26T12:23:21.476Z,86.60
2023-01-26T12:25:57.871Z,86.31
2023-01-26T12:29:01.379Z,86.27
2023-01-26T12:31:45.786Z,87.69
2023-01-26T12:34:14.599Z,87.61
2023-01-26T12:37:29.432Z,87.84
2023-01-26T12:40:25.853Z,87.49
2023-01-26T12:43:36.976Z,86.73
2023-01-26T12:46:07.643Z,86.39
2023-01-26T12:49:00.635Z,86.00
2023-01-26T12:51:42.022Z,86.92
2023-01-26T12:54:37.885Z,86.74
2023-01-26T12:57:15.175Z,87.15
2023-01-26T12:59:47.055Z,89.48
2023-01-26T13:02:16.640Z,90.03
2023-01-26T13:04:48.877Z,89.35
2023-01-26T13:07:38.529Z,89.05
2023-01-26T13:10:16.216Z,89.09
2023-01-26T13:12:50.183Z,88.34
2023-01-26T13:15:22.521Z,88.27
2023-01-26T13:17:54.702Z,88.27
2023-01-26T13:20:45.463Z,88.06
2023-01-26T13:23:28.562Z,87.71
2023-01-26T13:26:43.442Z,87.61
2023-01-26T13:29:54.238Z,88.08
2023-01-26T13:32:22.104Z,90.01
2023-01-26T13:34:59.215Z,90.64
2023-01-26T13:37:48.854Z,90.56
2023-01-26T13:40:40.367Z,89.17
2023-01-26T13:43:36.907Z,88.42
2023-01-26T13:46:43.094Z,88.48
2023-01-26T13:49:42.552Z,90.12
2023-01-26T13:52:25.567Z,89.75
2023-01-26T13:54:58.039Z,88.27
2023-01-26T13:57:30.325Z,88.45
2023-01-26T14:00:00.497Z,88.24
2023-01-26T14:02:32.833Z,88.18
2023-01-26T14:05:02.512Z,87.66
2023-01-26T14:07:43.449Z,87.78
2023-01-26T14:10:22.303Z,87.40
2023-01-26T14:12:57.392Z,87.57
2023-01-26T14:15:29.609Z,87.60
2023-01-26T14:18:03.274Z,87.59
2023-01-26T14:20:42.197Z,87.43
2023-01-26T14:23:18.965Z,88.56
2023-01-26T14:25:59.394Z,88.39
2023-01-26T14:28:34.290Z,88.82
2023-01-26T14:31:24.719Z,88.99
2023-01-26T14:34:01.455Z,88.22
2023-01-26T14:36:33.930Z,89.30
2023-01-26T14:39:01.898Z,88.56
2023-01-26T14:41:34.972Z,88.13
2023-01-26T14:44:05.973Z,87.86
2023-01-26T14:46:55.252Z,88.16
2023-01-26T14:49:47.862Z,87.76
2023-01-26T14:52:29.920Z,89.58
2023-01-26T14:55:06.378Z,90.69
2023-01-26T14:57:37.315Z,89.08
2023-01-26T15:00:10.184Z,88.35
2023-01-26T15:02:44.614Z,88.23
2023-01-26T15:05:22.198Z,88.02
2023-01-26T15:08:02.601Z,87.95
2023-01-26T15:10:41.799Z,88.98
2023-01-26T15:13:15.814Z,90.36
2023-01-26T15:15:48.886Z,91.32
2023-01-26T15:18:20.762Z,91.10
2023-01-26T15:21:26.086Z,91.70
2023-01-26T15:23:55.330Z,91.19
2023-01-26T15:26:30.946Z,90.77
2023-01-26T15:29:02.958Z,91.08
2023-01-26T15:31:36.386Z,90.92
2023-01-26T15:34:06.503Z,91.29
2023-01-26T15:36:48.650Z,90.85
2023-01-26T15:39:19.118Z,90.09
2023-01-26T15:42:13.338Z,91.09
2023-01-26T15:44:42.276Z,90.72
2023-01-26T15:47:12.173Z,90.71
2023-01-26T15:49:42.159Z,91.60
2023-01-26T15:52:21.369Z,90.95
2023-01-26T15:54:51.736Z,91.04
2023-01-26T15:57:19.748Z,91.16
2023-01-26T15:59:47.803Z,90.38
2023-01-26T16:02:20.433Z,90.64
2023-01-26T16:04:48.430Z,90.92
2023-01-26T16:07:18.564Z,90.02
2023-01-26T16:09:48.778Z,88.93
2023-01-26T16:12:31.625Z,88.44
2023-01-26T16:15:00.702Z,88.50
2023-01-26T16:17:29.089Z,88.89
2023-01-26T16:19:57.054Z,89.44
2023-01-26T16:22:25.459Z,89.79
2023-01-26T16:24:53.339Z,89.94
2023-01-26T16:27:21.857Z,89.48
2023-01-26T16:29:49.913Z,89.03
2023-01-26T16:32:30.497Z,88.53
2023-01-26T16:34:58.734Z,88.19
2023-01-26T16:37:26.736Z,88.35
2023-01-26T16:39:54.676Z,88.59
2023-01-26T16:42:22.869Z,88.48
2023-01-26T16:44:50.732Z,88.30
2023-01-26T16:47:18.626Z,88.16
2023-01-26T16:49:47.589Z,88.17
2023-01-26T16:52:16.248Z,88.52
2023-01-26T16:54:45.618Z,88.16
2023-01-26T16:57:13.917Z,87.67
2023-01-26T16:59:41.980Z,88.07
2023-01-26T17:02:34.711Z,87.90
2023-01-26T17:05:02.692Z,88.54
2023-01-26T17:07:30.644Z,89.32
2023-01-26T17:09:58.572Z,88.86
2023-01-26T17:12:27.334Z,88.43
2023-01-26T17:14:55.209Z,88.63
2023-01-26T17:17:23.123Z,88.87
2023-01-26T17:19:51.101Z,88.42
2023-01-26T17:22:19.197Z,88.64
2023-01-26T17:24:47.148Z,88.76
2023-01-26T17:27:15.056Z,88.94
2023-01-26T17:29:43.004Z,89.30
2023-01-26T17:32:11.273Z,89.18
2023-01-26T17:34:39.185Z,88.83
2023-01-26T17:37:07.102Z,88.89
2023-01-26T17:39:35.347Z,89.72
2023-01-26T17:42:03.502Z,90.33
2023-01-26T17:44:31.440Z,90.10
2023-01-26T17:46:59.423Z,89.82
2023-01-26T17:49:27.365Z,90.62
2023-01-26T17:51:55.232Z,90.48
2023-01-26T17:54:23.373Z,89.89
2023-01-26T17:56:51.429Z,89.28
2023-01-26T17:59:19.286Z,89.46
2023-01-26T18:01:47.278Z,88.69
2023-01-26T18:04:15.244Z,88.96
2023-01-26T18:06:43.551Z,89.49
2023-01-26T18:09:11.674Z,89.88
2023-01-26T18:11:39.627Z,90.00
2023-01-26T18:14:07.780Z,89.91
2023-01-26T18:16:35.698Z,89.39
2023-01-26T18:19:04.498Z,89.50
2023-01-26T18:21:34.743Z,89.13
2023-01-26T18:24:05.534Z,89.03
2023-01-26T18:26:37.667Z,88.74
2023-01-26T18:29:06.705Z,87.80
2023-01-26T18:31:40.695Z,87.69
2023-01-26T18:34:11.325Z,88.44
2023-01-26T18:36:39.327Z,88.45
2023-01-26T18:39:13.461Z,88.58
2023-01-26T18:41:43.309Z,88.62
2023-01-26T18:44:11.619Z,88.65
2023-01-26T18:46:39.553Z,88.81
2023-01-26T18:49:07.440Z,88.81
2023-01-26T18:51:36.197Z,88.32
2023-01-26T18:54:05.642Z,88.38
2023-01-26T18:56:33.669Z,88.83
2023-01-26T18:59:01.878Z,88.68
2023-01-26T19:01:29.995Z,88.43
2023-01-26T19:03:58.875Z,89.86
2023-01-26T19:06:30.798Z,88.71
2023-01-26T19:09:02.634Z,88.72
2023-01-26T19:11:34.354Z,88.48
2023-01-26T19:14:03.863Z,89.23
2023-01-26T19:16:33.225Z,89.31
2023-01-26T19:19:01.547Z,89.28
2023-01-26T19:21:29.471Z,89.40
2023-01-26T19:24:05.461Z,89.91
2023-01-26T19:26:34.016Z,90.04
2023-01-26T19:29:02.185Z,90.56
2023-01-26T19:31:30.729Z,89.87
2023-01-26T19:34:02.447Z,90.04
2023-01-26T19:36:33.570Z,89.91
2023-01-26T19:39:03.612Z,89.44
2023-01-26T19:41:32.232Z,89.74
2023-01-26T19:44:00.866Z,89.55
2023-01-26T19:46:28.905Z,90.07
2023-01-26T19:48:56.872Z,90.60
2023-01-26T19:51:27.440Z,90.91
2023-01-26T19:53:59.600Z,91.12
2023-01-26T19:56:31.742Z,91.02
2023-01-26T19:59:03.498Z,91.39
2023-01-26T20:01:32.770Z,91.54
2023-01-26T20:04:07.683Z,91.91
2023-01-26T20:06:37.391Z,92.01
2023-01-26T20:09:07.755Z,92.43
2023-01-26T20:11:36.045Z,93.00
2023-01-26T20:14:08.572Z,92.62
2023-01-26T20:16:37.002Z,93.00
2023-01-26T20:19:05.516Z,93.35
2023-01-26T20:21:34.417Z,93.40
2023-01-26T20:24:06.780Z,93.13
2023-01-26T20:26:36.003Z,93.05
2023-01-26T20:29:05.087Z,93.28
2023-01-26T20:31:33.180Z,93.66
2023-01-26T20:34:02.104Z,93.43
2023-01-26T20:36:31.557Z,93.28
2023-01-26T20:38:59.865Z,92.85
2023-01-26T20:41:30.786Z,93.05
2023-01-26T20:44:03.320Z,92.26
2023-01-26T20:46:36.313Z,92.05
2023-01-26T20:49:08.685Z,92.42
2023-01-26T20:51:39.389Z,92.21
2023-01-26T20:54:09.101Z,92.21
2023-01-26T20:56:37.345Z,92.58
2023-01-26T20:59:06.780Z,92.46
2023-01-26T21:01:36.455Z,92.69
2023-01-26T21:04:06.544Z,92.64
2023-01-26T21:06:35.407Z,92.26
2023-01-26T21:09:05.204Z,92.91
2023-01-26T21:11:35.016Z,93.28
2023-01-26T21:14:03.624Z,94.26
2023-01-26T21:16:34.028Z,94.35
2023-01-26T21:19:02.179Z,94.78
2023-01-26T21:21:30.132Z,94.36
2023-01-26T21:23:58.234Z,94.35
2023-01-26T21:26:27.885Z,94.63
2023-01-26T21:28:59.598Z,94.14
2023-01-26T21:31:37.152Z,93.78
2023-01-26T21:34:05.192Z,93.85
2023-01-26T21:36:35.310Z,94.12
2023-01-26T21:39:04.148Z,93.44
2023-01-26T21:41:52.472Z,93.23
2023-01-26T21:44:24.048Z,93.31
2023-01-26T21:46:56.196Z,92.78
2023-01-26T21:49:25.062Z,93.13
2023-01-26T21:52:11.867Z,92.95
2023-01-26T21:54:40.139Z,92.89
2023-01-26T21:57:29.491Z,93.23
2023-01-26T21:59:57.409Z,93.28
2023-01-26T22:02:26.422Z,93.09
2023-01-26T22:04:54.535Z,93.12
2023-01-26T22:07:22.973Z,93.35
2023-01-26T22:09:50.907Z,93.21
2023-01-26T22:12:19.039Z,93.15
2023-01-26T22:14:47.019Z,93.14
2023-01-26T22:17:15.011Z,92.77
2023-01-26T22:19:42.866Z,92.69
2023-01-26T22:22:10.898Z,92.78
2023-01-26T22:24:38.800Z,92.78
2023-01-26T22:27:08.309Z,92.84
2023-01-26T22:29:36.653Z,92.79
2023-01-26T22:32:05.122Z,92.82
2023-01-26T22:34:33.445Z,93.23
2023-01-26T22:37:01.362Z,93.55
2023-01-26T22:39:29.227Z,93.27
2023-01-26T22:41:57.154Z,93.34
2023-01-26T22:44:25.091Z,93.42
2023-01-26T22:46:53.083Z,93.94
2023-01-26T22:49:21.022Z,94.09
2023-01-26T22:51:48.933Z,93.93
2023-01-26T22:54:16.911Z,93.74
2023-01-26T22:56:44.780Z,93.64
2023-01-26T22:59:13.069Z,93.01
2023-01-26T23:01:43.336Z,93.38
2023-01-26T23:04:11.297Z,93.36
2023-01-26T23:06:39.219Z,93.57
2023-01-26T23:09:07.279Z,93.95
2023-01-26T23:11:35.220Z,94.64
2023-01-26T23:14:03.653Z,95.56
2023-01-26T23:16:31.613Z,95.83
2023-01-26T23:18:59.996Z,95.65
2023-01-26T23:21:29.787Z,96.01
2023-01-26T23:23:58.014Z,96.16
2023-01-26T23:26:26.083Z,95.95
2023-01-26T23:28:54.186Z,96.43
2023-01-26T23:31:22.568Z,96.24
2023-01-26T23:33:50.638Z,96.31
2023-01-26T23:36:18.632Z,96.41
2023-01-26T23:38:46.656Z,96.44
2023-01-26T23:41:14.827Z,96.51
2023-01-26T23:43:42.773Z,96.76
2023-01-26T23:46:11.672Z,96.59
2023-01-26T23:48:39.874Z,96.63
2023-01-26T23:51:11.164Z,96.44
2023-01-26T23:53:39.465Z,96.73
2023-01-26T23:56:17.352Z,96.41
2023-01-26T23:58:45.817Z,95.69
